Battenville, New York
Current Conditions -  °F | °C
As of 4:53 AM on Saturday 29 Nov 2014 (Local Time) from KGFL Reporting Station
Overcast Overcast  
Wind Chill: 16°   Ceiling: 11000
Heat Index: 16°   Visibility: 10mi
Dew Point: 12°   Wind: 0mph
Humidity: 84%   Direction: NA
Pressure: 30.26"   Gusts: NA
Location:  43.09°N, 73.5018°W
Report Text: KGFL 290953Z AUTO 00000KT 10SM OVC110 M09/M11 A3026 RMK AO2 SLP260 T10891111
Loading
Personal Weather Stations






























Interactive Weather Map New forecast layout! Learn more

10-Day Weather Forecast

Advertisements
Track Severe Weather on mobile